Time;durP1;ratioP1;P1;durP2;ratioP2;P2;SDS_P1;SDS_P2;PMS_P1;PMS_P2;Temp;Humidity;BMP_temperature;BMP_pressure;BME280_temperature;BME280_humidity;BME280_pressure;Samples;Min_cycle;Max_cycle;Signal;HPM_P1;HPM_P2
2022/06/30 00:01:11;;;;;;;;;;;25.50;44.80;;;;;;8466870;28;19908;-43
2022/06/30 00:05:12;;;;;;;;;;;25.50;44.80;;;;;;8466089;28;19920;-43
2022/06/30 00:09:12;;;;;;;;;;;25.50;44.80;;;;;;8466386;28;19937;-43
2022/06/30 00:13:13;;;;;;;;;;;25.50;44.80;;;;;;8466081;27;20273;-42
2022/06/30 00:17:13;;;;;;;;;;;25.50;44.80;;;;;;8465231;28;19911;-42
2022/06/30 00:21:13;;;;;;;;;;;25.50;44.80;;;;;;8466488;28;19908;-44
2022/06/30 00:25:14;;;;;;;;;;;25.50;44.80;;;;;;8465815;28;20002;-43
2022/06/30 00:29:15;;;;;;;;;;;25.50;44.80;;;;;;8465382;28;20360;-43
2022/06/30 00:33:15;;;;;;;;;;;25.50;44.80;;;;;;8465622;28;20436;-43
2022/06/30 00:37:16;;;;;;;;;;;25.50;44.80;;;;;;8465701;27;19915;-44
2022/06/30 00:41:16;;;;;;;;;;;25.50;44.80;;;;;;8465173;28;19911;-43
2022/06/30 00:45:17;;;;;;;;;;;25.50;44.80;;;;;;8465206;28;19920;-43
2022/06/30 00:49:18;;;;;;;;;;;25.40;44.80;;;;;;8465269;28;19908;-42
2022/06/30 00:53:19;;;;;;;;;;;25.40;44.80;;;;;;8465084;28;20350;-42
2022/06/30 00:57:20;;;;;;;;;;;25.40;44.80;;;;;;8465078;28;19908;-44
2022/06/30 01:01:21;;;;;;;;;;;25.40;44.80;;;;;;8464684;28;19994;-44
2022/06/30 01:05:24;;;;;;;;;;;25.40;44.80;;;;;;8463850;28;19942;-44
2022/06/30 01:13:44;;;;;;;;;;;25.40;44.90;;;;;;8464223;28;19974;-43
2022/06/30 01:17:45;;;;;;;;;;;25.40;44.80;;;;;;8464288;28;19907;-43
2022/06/30 01:22:01;;;;;;;;;;;25.40;44.90;;;;;;8464451;28;20326;-43
2022/06/30 01:26:01;;;;;;;;;;;25.40;44.90;;;;;;8429846;28;19924;-43
2022/06/30 01:30:02;;;;;;;;;;;25.40;44.90;;;;;;8455826;28;20342;-43
2022/06/30 01:34:03;;;;;;;;;;;25.40;44.90;;;;;;8464274;28;19908;-43
2022/06/30 01:38:03;;;;;;;;;;;25.40;44.90;;;;;;8463316;28;19912;-43
2022/06/30 01:42:04;;;;;;;;;;;25.30;44.80;;;;;;8463808;28;19914;-44
2022/06/30 01:46:04;;;;;;;;;;;25.30;44.80;;;;;;8463570;28;20013;-43
2022/06/30 01:50:06;;;;;;;;;;;25.30;44.80;;;;;;8463207;28;19912;-43
2022/06/30 01:54:08;;;;;;;;;;;25.30;44.90;;;;;;8463442;28;19912;-43
2022/06/30 01:58:08;;;;;;;;;;;25.30;45.40;;;;;;8463435;28;20392;-44
2022/06/30 02:02:09;;;;;;;;;;;25.30;44.80;;;;;;8463074;28;19914;-43
2022/06/30 02:06:09;;;;;;;;;;;25.30;44.80;;;;;;8463128;28;19927;-43
2022/06/30 02:10:11;;;;;;;;;;;25.30;44.90;;;;;;8463355;28;19934;-43
2022/06/30 02:14:12;;;;;;;;;;;25.30;44.90;;;;;;8463173;28;19918;-43
2022/06/30 02:18:12;;;;;;;;;;;25.30;44.90;;;;;;8463342;28;19998;-43
2022/06/30 02:22:13;;;;;;;;;;;25.20;44.80;;;;;;8463279;28;19908;-43
2022/06/30 02:26:13;;;;;;;;;;;25.20;44.90;;;;;;8462969;28;19920;-43
2022/06/30 02:30:13;;;;;;;;;;;25.20;44.80;;;;;;8462960;28;20337;-44
2022/06/30 02:34:14;;;;;;;;;;;25.20;44.90;;;;;;8463166;28;19964;-43
2022/06/30 02:38:14;;;;;;;;;;;25.20;44.90;;;;;;8465106;28;19912;-44
2022/06/30 02:42:15;;;;;;;;;;;25.20;44.80;;;;;;8469511;28;19961;-43
2022/06/30 02:46:15;;;;;;;;;;;25.20;44.90;;;;;;8468994;27;19970;-43
2022/06/30 02:50:16;;;;;;;;;;;25.20;44.90;;;;;;8468577;28;19922;-44
2022/06/30 02:54:16;;;;;;;;;;;25.20;44.90;;;;;;8468928;28;19947;-44
2022/06/30 02:58:17;;;;;;;;;;;25.10;44.80;;;;;;8468825;27;19919;-43
2022/06/30 03:02:18;;;;;;;;;;;25.10;44.80;;;;;;8468355;27;19991;-43
2022/06/30 03:06:18;;;;;;;;;;;25.20;45.00;;;;;;8468604;28;19986;-44
2022/06/30 03:10:19;;;;;;;;;;;25.10;45.40;;;;;;8467942;28;20364;-43
2022/06/30 03:14:19;;;;;;;;;;;25.10;44.80;;;;;;8468247;28;19912;-43
2022/06/30 03:18:20;;;;;;;;;;;25.10;44.90;;;;;;8467991;28;20364;-43
2022/06/30 03:22:20;;;;;;;;;;;25.10;44.90;;;;;;8467719;28;19961;-43
2022/06/30 03:26:21;;;;;;;;;;;25.10;44.90;;;;;;8468066;27;19924;-44
2022/06/30 03:30:21;;;;;;;;;;;25.10;44.90;;;;;;8467860;28;19942;-42
2022/06/30 03:34:22;;;;;;;;;;;25.10;44.90;;;;;;8467366;28;20403;-43
2022/06/30 03:38:22;;;;;;;;;;;25.10;44.90;;;;;;8467450;28;19915;-42
2022/06/30 03:42:23;;;;;;;;;;;25.00;44.80;;;;;;8467492;28;20577;-42
2022/06/30 03:46:23;;;;;;;;;;;25.10;44.90;;;;;;8466586;28;20014;-43
2022/06/30 03:50:24;;;;;;;;;;;25.00;44.90;;;;;;8465773;28;19918;-42
2022/06/30 03:54:24;;;;;;;;;;;25.00;44.90;;;;;;8467143;27;19915;-43
2022/06/30 03:58:25;;;;;;;;;;;25.00;44.90;;;;;;8466278;28;19911;-42
2022/06/30 04:02:25;;;;;;;;;;;25.00;44.90;;;;;;8466087;28;19907;-43
2022/06/30 04:06:26;;;;;;;;;;;25.00;44.90;;;;;;8466394;28;19920;-43
2022/06/30 04:10:26;;;;;;;;;;;25.00;44.90;;;;;;8466065;28;19907;-43
2022/06/30 04:14:27;;;;;;;;;;;25.00;44.90;;;;;;8466212;28;19916;-43
2022/06/30 04:18:27;;;;;;;;;;;25.00;44.90;;;;;;8466236;27;19916;-43
2022/06/30 04:22:28;;;;;;;;;;;25.00;44.90;;;;;;8465803;28;20287;-43
2022/06/30 04:26:28;;;;;;;;;;;25.00;44.90;;;;;;8465783;28;19919;-43
2022/06/30 04:34:48;;;;;;;;;;;25.00;44.90;;;;;;8465307;28;20284;-43
2022/06/30 04:38:48;;;;;;;;;;;25.00;44.90;;;;;;8465837;28;19908;-43
2022/06/30 04:42:49;;;;;;;;;;;24.90;44.90;;;;;;8465381;28;19945;-43
2022/06/30 04:46:49;;;;;;;;;;;24.90;44.90;;;;;;8464787;28;20006;-43
2022/06/30 04:50:50;;;;;;;;;;;24.90;44.90;;;;;;8465053;28;19987;-42
2022/06/30 04:54:50;;;;;;;;;;;25.00;44.90;;;;;;8464975;28;19908;-42
2022/06/30 04:58:51;;;;;;;;;;;24.90;44.90;;;;;;8464524;28;20014;-44
2022/06/30 05:02:51;;;;;;;;;;;24.90;44.90;;;;;;8464587;28;19919;-43
2022/06/30 05:06:52;;;;;;;;;;;24.90;44.90;;;;;;8464613;28;19955;-44
2022/06/30 05:10:52;;;;;;;;;;;24.90;44.90;;;;;;8464001;28;20006;-43
2022/06/30 05:14:52;;;;;;;;;;;24.90;44.90;;;;;;8464351;28;19931;-43
2022/06/30 05:18:53;;;;;;;;;;;24.90;44.90;;;;;;8464168;28;19919;-43
2022/06/30 05:22:53;;;;;;;;;;;24.90;45.30;;;;;;8463984;28;20319;-44
2022/06/30 05:26:54;;;;;;;;;;;25.00;44.70;;;;;;8463901;28;19923;-43
2022/06/30 05:30:57;;;;;;;;;;;25.10;44.50;;;;;;8464080;28;19908;-43
2022/06/30 05:34:58;;;;;;;;;;;25.20;44.20;;;;;;8463479;28;20002;-43
2022/06/30 05:38:58;;;;;;;;;;;25.30;44.00;;;;;;8464136;28;19907;-43
2022/06/30 05:42:59;;;;;;;;;;;25.40;43.90;;;;;;8464009;28;20331;-42
2022/06/30 05:46:59;;;;;;;;;;;25.40;43.90;;;;;;8462996;28;19927;-42
2022/06/30 05:51:00;;;;;;;;;;;25.30;44.00;;;;;;8463732;28;19919;-43
2022/06/30 05:55:00;;;;;;;;;;;25.30;44.20;;;;;;8463349;28;20037;-43
2022/06/30 05:59:00;;;;;;;;;;;25.20;44.10;;;;;;8462922;28;20365;-42
2022/06/30 06:03:01;;;;;;;;;;;25.20;44.20;;;;;;8463768;28;20360;-43
2022/06/30 06:07:03;;;;;;;;;;;25.20;44.30;;;;;;8463138;28;19923;-44
2022/06/30 06:11:04;;;;;;;;;;;25.20;44.50;;;;;;8462797;28;20326;-43
2022/06/30 06:15:04;;;;;;;;;;;25.10;44.40;;;;;;8469089;28;19946;-43
2022/06/30 06:19:05;;;;;;;;;;;25.10;45.00;;;;;;8469841;28;19996;-43
2022/06/30 06:23:05;;;;;;;;;;;25.10;44.50;;;;;;8469502;28;20412;-44
2022/06/30 06:27:06;;;;;;;;;;;25.10;44.50;;;;;;8469904;28;19943;-43
2022/06/30 06:31:07;;;;;;;;;;;25.00;44.50;;;;;;8469595;28;19911;-44
2022/06/30 06:35:09;;;;;;;;;;;25.00;44.50;;;;;;8468886;28;19957;-43
2022/06/30 06:39:09;;;;;;;;;;;25.00;44.60;;;;;;8469450;28;20021;-44
2022/06/30 06:43:09;;;;;;;;;;;25.00;44.60;;;;;;8469502;28;19997;-43
2022/06/30 06:47:10;;;;;;;;;;;25.00;44.60;;;;;;8468498;28;19912;-43
2022/06/30 06:51:10;;;;;;;;;;;25.00;44.60;;;;;;8468675;28;19919;-44
2022/06/30 06:55:11;;;;;;;;;;;25.00;44.60;;;;;;8468419;28;19912;-43
2022/06/30 06:59:11;;;;;;;;;;;25.00;44.70;;;;;;8468181;28;19916;-43
2022/06/30 07:03:12;;;;;;;;;;;25.00;44.60;;;;;;8468403;28;20346;-44
2022/06/30 07:07:12;;;;;;;;;;;25.00;44.70;;;;;;8455439;28;20003;-43
2022/06/30 07:11:13;;;;;;;;;;;25.00;44.70;;;;;;8450002;28;19923;-43
2022/06/30 07:15:13;;;;;;;;;;;25.00;44.70;;;;;;8468349;28;19931;-45
2022/06/30 07:19:14;;;;;;;;;;;25.00;44.70;;;;;;8468434;28;20340;-44
2022/06/30 07:23:14;;;;;;;;;;;25.00;44.70;;;;;;8467141;28;19919;-44
2022/06/30 07:27:15;;;;;;;;;;;25.00;44.70;;;;;;8468071;28;20002;-45
2022/06/30 07:31:15;;;;;;;;;;;25.00;44.70;;;;;;8467623;28;19918;-43
2022/06/30 07:35:16;;;;;;;;;;;25.00;44.70;;;;;;8467023;28;19916;-43
2022/06/30 07:39:16;;;;;;;;;;;25.00;44.70;;;;;;8467962;28;19991;-43
2022/06/30 07:43:17;;;;;;;;;;;25.00;44.70;;;;;;8467303;28;19954;-43
2022/06/30 07:47:17;;;;;;;;;;;25.00;44.70;;;;;;8466627;28;19916;-44
2022/06/30 07:51:20;;;;;;;;;;;25.00;44.70;;;;;;8467015;28;19914;-45
2022/06/30 07:55:20;;;;;;;;;;;25.10;44.70;;;;;;8466520;28;19912;-44
2022/06/30 07:59:21;;;;;;;;;;;25.10;44.70;;;;;;8467064;28;20029;-45
2022/06/30 08:03:21;;;;;;;;;;;25.10;44.60;;;;;;8466852;28;19926;-46
2022/06/30 08:07:21;;;;;;;;;;;25.10;44.60;;;;;;8466106;28;19912;-43
2022/06/30 08:11:23;;;;;;;;;;;25.10;44.60;;;;;;8466812;28;19912;-43
2022/06/30 08:15:23;;;;;;;;;;;25.20;44.70;;;;;;8466352;28;19914;-44
2022/06/30 08:19:24;;;;;;;;;;;25.20;44.70;;;;;;8466420;28;19911;-42
2022/06/30 08:23:24;;;;;;;;;;;25.20;44.70;;;;;;8466206;28;19934;-42
2022/06/30 08:27:25;;;;;;;;;;;25.20;44.70;;;;;;8466122;28;19923;-42
2022/06/30 08:31:25;;;;;;;;;;;25.20;44.70;;;;;;8465826;28;19908;-42
2022/06/30 08:35:25;;;;;;;;;;;25.20;44.70;;;;;;8465223;28;20041;-42
2022/06/30 08:43:45;;;;;;;;;;;25.30;44.70;;;;;;8465040;28;20312;-42
2022/06/30 08:47:47;;;;;;;;;;;25.30;44.70;;;;;;8465178;28;19912;-43
2022/06/30 08:51:47;;;;;;;;;;;25.30;44.70;;;;;;8465152;28;20355;-42
2022/06/30 08:55:48;;;;;;;;;;;25.30;44.70;;;;;;8464645;28;19911;-42
2022/06/30 08:59:48;;;;;;;;;;;25.30;44.70;;;;;;8465043;28;19912;-42
2022/06/30 09:03:49;;;;;;;;;;;25.30;44.70;;;;;;8464684;28;19924;-42
2022/06/30 09:07:49;;;;;;;;;;;25.40;44.70;;;;;;8464150;28;20319;-43
2022/06/30 09:11:54;;;;;;;;;;;25.40;44.70;;;;;;8464591;28;19912;-43
2022/06/30 09:15:58;;;;;;;;;;;25.40;44.70;;;;;;8464485;28;19911;-42
2022/06/30 09:20:10;;;;;;;;;;;25.40;44.70;;;;;;8464009;28;19947;-42
2022/06/30 09:24:21;;;;;;;;;;;25.40;44.70;;;;;;8464525;28;19920;-43
2022/06/30 09:28:38;;;;;;;;;;;25.50;44.70;;;;;;8463513;28;20002;-44
2022/06/30 09:32:54;;;;;;;;;;;25.50;44.60;;;;;;8464215;28;20386;-43
2022/06/30 09:36:55;;;;;;;;;;;25.50;44.70;;;;;;8463704;28;19918;-43
2022/06/30 09:41:01;;;;;;;;;;;25.50;44.70;;;;;;8463380;28;19912;-43
2022/06/30 09:45:04;;;;;;;;;;;25.50;44.70;;;;;;8463927;28;20284;-43
2022/06/30 09:49:04;;;;;;;;;;;25.60;44.70;;;;;;8463371;28;19912;-42
2022/06/30 09:53:10;;;;;;;;;;;25.60;44.70;;;;;;8462915;28;20379;-42
2022/06/30 09:57:11;;;;;;;;;;;25.60;44.70;;;;;;8463649;28;19907;-41
2022/06/30 10:01:12;;;;;;;;;;;25.60;44.60;;;;;;8463461;28;20431;-42
2022/06/30 10:05:13;;;;;;;;;;;25.60;44.60;;;;;;8462028;28;20356;-42
2022/06/30 10:09:15;;;;;;;;;;;25.60;44.60;;;;;;8463594;28;20283;-42
2022/06/30 10:13:17;;;;;;;;;;;25.70;44.60;;;;;;8463216;28;19919;-43
2022/06/30 10:17:19;;;;;;;;;;;25.70;44.60;;;;;;8462638;28;20345;-43
2022/06/30 10:21:20;;;;;;;;;;;25.70;44.60;;;;;;8463335;28;20352;-42
2022/06/30 10:25:22;;;;;;;;;;;25.70;44.50;;;;;;8462605;28;19924;-42
2022/06/30 10:29:22;;;;;;;;;;;25.80;44.60;;;;;;8463342;28;19969;-42
2022/06/30 10:33:26;;;;;;;;;;;25.80;44.60;;;;;;8462913;28;20269;-42
2022/06/30 10:37:30;;;;;;;;;;;25.80;44.50;;;;;;8462384;28;19912;-42
2022/06/30 10:41:31;;;;;;;;;;;25.90;44.60;;;;;;8463009;28;20052;-42
2022/06/30 10:45:31;;;;;;;;;;;25.90;44.50;;;;;;8463147;28;19920;-43
2022/06/30 10:49:32;;;;;;;;;;;25.90;44.50;;;;;;8462258;28;20335;-43
2022/06/30 10:53:35;;;;;;;;;;;25.90;44.40;;;;;;8462730;28;19934;-42
2022/06/30 10:57:58;;;;;;;;;;;25.90;44.40;;;;;;8462596;28;19912;-42
2022/06/30 11:02:10;;;;;;;;;;;26.00;44.50;;;;;;8469389;28;19912;-43
2022/06/30 11:06:12;;;;;;;;;;;26.00;44.40;;;;;;8468747;28;19977;-43
2022/06/30 11:10:17;;;;;;;;;;;26.00;44.40;;;;;;8468725;28;20292;-43
2022/06/30 11:14:18;;;;;;;;;;;26.10;44.40;;;;;;8468083;28;20172;-43
2022/06/30 11:18:18;;;;;;;;;;;26.10;44.40;;;;;;8468192;28;19912;-45
2022/06/30 11:22:20;;;;;;;;;;;26.10;44.30;;;;;;8467754;28;19918;-43
2022/06/30 11:30:40;;;;;;;;;;;26.20;44.30;;;;;;8468359;28;19914;-43
2022/06/30 11:34:41;;;;;;;;;;;26.20;44.30;;;;;;8467284;28;20340;-44
2022/06/30 11:38:41;;;;;;;;;;;26.20;44.20;;;;;;8467973;28;19912;-44
2022/06/30 11:42:42;;;;;;;;;;;26.20;44.20;;;;;;8467391;28;19996;-43
2022/06/30 11:46:58;;;;;;;;;;;26.30;44.20;;;;;;8466875;28;20086;-43
2022/06/30 11:50:59;;;;;;;;;;;26.30;44.20;;;;;;8467671;28;20365;-44
2022/06/30 11:55:04;;;;;;;;;;;26.30;44.10;;;;;;8467222;28;19958;-43
2022/06/30 11:59:05;;;;;;;;;;;26.40;44.20;;;;;;8466529;28;19957;-43
2022/06/30 12:03:11;;;;;;;;;;;26.40;44.10;;;;;;8466804;28;19916;-43
2022/06/30 12:07:14;;;;;;;;;;;26.40;44.10;;;;;;8466693;28;19966;-44
2022/06/30 12:11:14;;;;;;;;;;;26.40;44.10;;;;;;8465331;28;19908;-43
2022/06/30 12:15:16;;;;;;;;;;;26.40;44.10;;;;;;8466661;28;20002;-43
2022/06/30 12:19:16;;;;;;;;;;;26.40;44.10;;;;;;8466427;27;19915;-44
2022/06/30 12:23:17;;;;;;;;;;;26.40;44.10;;;;;;8465589;28;19911;-43
2022/06/30 12:27:28;;;;;;;;;;;26.40;44.00;;;;;;8465728;28;19920;-44
2022/06/30 12:31:29;;;;;;;;;;;26.50;44.00;;;;;;8465633;28;19907;-43
2022/06/30 12:35:32;;;;;;;;;;;26.50;44.00;;;;;;8465928;28;19945;-43
2022/06/30 12:39:32;;;;;;;;;;;26.60;44.00;;;;;;8465579;28;19922;-44
2022/06/30 12:43:41;;;;;;;;;;;26.60;44.00;;;;;;8465075;28;19911;-43
2022/06/30 12:47:42;;;;;;;;;;;26.60;44.00;;;;;;8465446;28;20261;-43
2022/06/30 12:51:42;;;;;;;;;;;26.60;43.90;;;;;;8465251;28;19908;-43
2022/06/30 12:56:00;;;;;;;;;;;26.60;44.00;;;;;;8464748;28;19908;-42
2022/06/30 13:00:02;;;;;;;;;;;26.60;43.90;;;;;;8465161;28;19911;-43
2022/06/30 13:04:03;;;;;;;;;;;26.60;43.90;;;;;;8453612;28;20380;-44
2022/06/30 13:08:04;;;;;;;;;;;26.70;44.00;;;;;;8442240;28;19911;-43
2022/06/30 13:12:04;;;;;;;;;;;26.70;44.00;;;;;;8464559;28;19935;-43
2022/06/30 13:16:05;;;;;;;;;;;26.70;44.00;;;;;;8464759;28;20268;-43
2022/06/30 13:20:05;;;;;;;;;;;26.70;44.00;;;;;;8463794;28;20386;-43
2022/06/30 13:24:09;;;;;;;;;;;26.70;44.00;;;;;;8464106;28;19920;-43
2022/06/30 13:28:10;;;;;;;;;;;26.80;44.00;;;;;;8464172;28;19916;-44
2022/06/30 13:32:10;;;;;;;;;;;26.70;43.90;;;;;;8463655;28;19920;-44
2022/06/30 13:36:11;;;;;;;;;;;26.80;44.00;;;;;;8464410;28;20364;-44
2022/06/30 13:40:11;;;;;;;;;;;26.80;44.00;;;;;;8463910;28;19942;-43
2022/06/30 13:44:12;;;;;;;;;;;26.80;43.90;;;;;;8463272;28;20014;-43
2022/06/30 13:48:12;;;;;;;;;;;26.80;43.90;;;;;;8463962;28;19923;-45
2022/06/30 13:52:13;;;;;;;;;;;26.80;43.90;;;;;;8463625;28;19915;-45
2022/06/30 13:56:13;;;;;;;;;;;26.80;43.90;;;;;;8463438;28;19908;-44
2022/06/30 14:00:14;;;;;;;;;;;26.90;43.90;;;;;;8463714;28;20003;-45
2022/06/30 14:04:16;;;;;;;;;;;26.90;44.00;;;;;;8463339;28;19920;-43
2022/06/30 14:08:18;;;;;;;;;;;26.90;44.00;;;;;;8462839;28;19915;-42
2022/06/30 14:12:18;;;;;;;;;;;26.90;44.00;;;;;;8463231;28;19915;-43
2022/06/30 14:16:19;;;;;;;;;;;26.80;43.90;;;;;;8463087;28;20253;-43
2022/06/30 14:20:20;;;;;;;;;;;26.90;44.00;;;;;;8463254;28;19915;-43
2022/06/30 14:24:20;;;;;;;;;;;26.90;44.00;;;;;;8463045;28;19920;-43
2022/06/30 14:28:20;;;;;;;;;;;26.80;44.50;;;;;;8462724;28;19916;-42
2022/06/30 14:32:22;;;;;;;;;;;26.90;44.00;;;;;;8462913;28;19908;-46
2022/06/30 14:36:22;;;;;;;;;;;26.80;44.00;;;;;;8469784;28;19991;-44
2022/06/30 14:40:23;;;;;;;;;;;26.90;44.00;;;;;;8469029;28;19918;-44
2022/06/30 14:44:24;;;;;;;;;;;26.90;44.00;;;;;;8461902;27;19931;-43
2022/06/30 14:48:26;;;;;;;;;;;26.90;44.00;;;;;;8465244;27;19918;-42
2022/06/30 14:52:28;;;;;;;;;;;26.90;44.10;;;;;;8462960;28;19995;-43
2022/06/30 14:56:28;;;;;;;;;;;26.90;44.10;;;;;;8454959;27;19912;-43
2022/06/30 15:00:29;;;;;;;;;;;26.80;44.00;;;;;;8468777;28;19911;-43
2022/06/30 15:04:29;;;;;;;;;;;26.80;44.00;;;;;;8463537;27;19926;-43
2022/06/30 15:08:30;;;;;;;;;;;26.80;44.10;;;;;;8467505;27;19918;-43
2022/06/30 15:12:30;;;;;;;;;;;26.80;44.10;;;;;;8465637;28;19974;-43
2022/06/30 15:16:30;;;;;;;;;;;26.80;44.10;;;;;;8463292;27;20387;-43
2022/06/30 15:20:31;;;;;;;;;;;26.80;44.10;;;;;;8464195;28;20398;-44
2022/06/30 15:24:31;;;;;;;;;;;26.80;44.10;;;;;;8465618;27;19952;-42
2022/06/30 15:28:32;;;;;;;;;;;26.80;44.20;;;;;;8463327;27;19915;-42
2022/06/30 15:32:32;;;;;;;;;;;26.80;44.20;;;;;;8462827;27;19923;-44
2022/06/30 15:36:34;;;;;;;;;;;26.80;44.30;;;;;;8457864;27;19916;-44
2022/06/30 15:40:34;;;;;;;;;;;26.80;44.40;;;;;;8444876;28;19992;-44
2022/06/30 15:44:35;;;;;;;;;;;26.80;44.40;;;;;;8455141;28;20285;-43
2022/06/30 15:48:35;;;;;;;;;;;26.70;44.40;;;;;;8467549;28;20010;-43
2022/06/30 15:52:36;;;;;;;;;;;26.80;44.60;;;;;;8466776;28;19915;-44
2022/06/30 15:56:36;;;;;;;;;;;26.80;44.80;;;;;;8466915;28;19957;-44
2022/06/30 16:00:38;;;;;;;;;;;26.70;44.60;;;;;;8466984;28;19920;-44
2022/06/30 16:04:38;;;;;;;;;;;26.70;44.70;;;;;;8471029;27;20121;-44
2022/06/30 16:08:39;;;;;;;;;;;26.70;44.70;;;;;;8494095;27;20304;-43
2022/06/30 16:12:41;;;;;;;;;;;26.70;44.70;;;;;;8466752;28;19979;-43
2022/06/30 16:16:41;;;;;;;;;;;26.70;44.70;;;;;;8465952;28;19916;-43
2022/06/30 16:20:42;;;;;;;;;;;26.70;44.80;;;;;;8466229;28;19965;-43
2022/06/30 16:24:42;;;;;;;;;;;26.70;44.70;;;;;;8465891;28;19924;-44
2022/06/30 16:28:43;;;;;;;;;;;26.70;44.70;;;;;;8465656;28;20363;-44
2022/06/30 16:32:44;;;;;;;;;;;26.70;44.70;;;;;;8465961;28;19908;-44
2022/06/30 16:36:44;;;;;;;;;;;26.70;44.80;;;;;;8465730;28;19912;-44
2022/06/30 16:40:46;;;;;;;;;;;26.70;44.70;;;;;;8465115;28;19951;-45
2022/06/30 16:44:46;;;;;;;;;;;26.70;44.80;;;;;;8465611;28;19919;-44
2022/06/30 16:48:49;;;;;;;;;;;26.70;44.80;;;;;;8465187;28;19954;-43
2022/06/30 16:52:49;;;;;;;;;;;26.70;44.70;;;;;;8464768;28;19908;-44
2022/06/30 16:56:49;;;;;;;;;;;26.70;44.80;;;;;;8464551;28;20010;-44
2022/06/30 17:00:50;;;;;;;;;;;26.70;44.80;;;;;;8464906;28;20324;-43
2022/06/30 17:04:50;;;;;;;;;;;26.70;44.80;;;;;;8464266;28;19920;-44
2022/06/30 17:08:51;;;;;;;;;;;26.70;44.80;;;;;;8464903;28;19919;-45
2022/06/30 17:12:51;;;;;;;;;;;26.70;44.80;;;;;;8464986;28;19953;-43
2022/06/30 17:16:52;;;;;;;;;;;26.70;44.90;;;;;;8463989;28;19919;-44
2022/06/30 17:20:52;;;;;;;;;;;26.60;44.90;;;;;;8464364;28;19916;-48
2022/06/30 17:24:53;;;;;;;;;;;26.60;44.80;;;;;;8464245;28;19919;-45
2022/06/30 17:28:53;;;;;;;;;;;26.60;44.90;;;;;;8463876;28;19912;-44
2022/06/30 17:32:54;;;;;;;;;;;26.60;44.80;;;;;;8464051;28;20356;-44
2022/06/30 17:36:55;;;;;;;;;;;26.60;44.90;;;;;;8463846;28;19912;-44
2022/06/30 17:40:55;;;;;;;;;;;26.60;44.90;;;;;;8463211;28;19918;-45
2022/06/30 17:44:57;;;;;;;;;;;26.60;44.80;;;;;;8463689;28;20330;-44
2022/06/30 17:48:58;;;;;;;;;;;26.60;44.90;;;;;;8463590;28;19911;-44
2022/06/30 17:52:58;;;;;;;;;;;26.60;44.90;;;;;;8463431;28;19907;-44
2022/06/30 17:57:00;;;;;;;;;;;26.60;45.00;;;;;;8463536;28;19985;-44
2022/06/30 18:01:00;;;;;;;;;;;26.60;44.90;;;;;;8463494;28;19912;-44
2022/06/30 18:05:00;;;;;;;;;;;26.60;44.90;;;;;;8462931;28;19955;-44
2022/06/30 18:13:20;;;;;;;;;;;26.60;45.00;;;;;;8470338;28;19915;-44
2022/06/30 18:17:21;;;;;;;;;;;26.60;45.00;;;;;;8470363;28;20360;-44
2022/06/30 18:21:21;;;;;;;;;;;26.60;45.00;;;;;;8470311;28;19918;-45
2022/06/30 18:25:22;;;;;;;;;;;26.50;44.90;;;;;;8469692;28;19919;-45
2022/06/30 18:29:22;;;;;;;;;;;26.50;45.00;;;;;;8452004;28;20334;-45
2022/06/30 18:33:23;;;;;;;;;;;26.50;45.00;;;;;;8470063;28;19912;-44
2022/06/30 18:37:24;;;;;;;;;;;26.50;45.10;;;;;;8469128;28;19916;-44
2022/06/30 18:41:24;;;;;;;;;;;26.50;45.10;;;;;;8469660;28;20374;-44
2022/06/30 18:45:25;;;;;;;;;;;26.60;45.20;;;;;;8469368;28;20300;-47
2022/06/30 18:49:25;;;;;;;;;;;26.50;45.20;;;;;;8468883;28;19965;-45
2022/06/30 18:53:26;;;;;;;;;;;26.50;45.20;;;;;;8469169;28;20360;-44
2022/06/30 18:57:26;;;;;;;;;;;26.50;45.20;;;;;;8468891;28;20268;-44
2022/06/30 19:01:27;;;;;;;;;;;26.50;45.20;;;;;;8468347;28;19918;-43
2022/06/30 19:05:27;;;;;;;;;;;26.50;45.20;;;;;;8448916;28;19919;-43
2022/06/30 19:09:28;;;;;;;;;;;26.50;45.30;;;;;;8468781;28;19965;-43
2022/06/30 19:13:29;;;;;;;;;;;26.50;45.30;;;;;;8468353;28;19908;-43
2022/06/30 19:17:29;;;;;;;;;;;26.50;45.20;;;;;;8468508;28;20279;-43
2022/06/30 19:21:32;;;;;;;;;;;26.50;45.30;;;;;;8468420;28;19912;-42
2022/06/30 19:25:33;;;;;;;;;;;26.50;45.30;;;;;;8467989;28;19931;-43
2022/06/30 19:29:34;;;;;;;;;;;26.40;45.20;;;;;;8468468;28;19919;-44
2022/06/30 19:33:41;;;;;;;;;;;26.50;45.30;;;;;;8468210;28;19907;-45
2022/06/30 19:37:42;;;;;;;;;;;26.40;45.20;;;;;;8467359;28;19912;-42
2022/06/30 19:41:43;;;;;;;;;;;26.40;45.30;;;;;;8467403;28;20324;-43
2022/06/30 19:45:43;;;;;;;;;;;26.40;45.30;;;;;;8467156;28;20347;-44
2022/06/30 19:49:44;;;;;;;;;;;26.40;45.30;;;;;;8467030;28;19911;-43
2022/06/30 19:53:44;;;;;;;;;;;26.40;45.30;;;;;;8467658;28;19908;-43
2022/06/30 19:57:45;;;;;;;;;;;26.40;45.40;;;;;;8467186;28;19912;-43
2022/06/30 20:01:46;;;;;;;;;;;26.40;45.40;;;;;;8466483;28;20370;-44
2022/06/30 20:05:47;;;;;;;;;;;26.40;45.40;;;;;;8466643;28;19955;-43
2022/06/30 20:14:07;;;;;;;;;;;26.40;45.40;;;;;;8466291;28;19915;-47
2022/06/30 20:18:08;;;;;;;;;;;26.40;45.40;;;;;;8466230;28;20382;-44
2022/06/30 20:22:09;;;;;;;;;;;26.30;45.40;;;;;;8466679;28;19918;-44
2022/06/30 20:26:10;;;;;;;;;;;26.30;45.40;;;;;;8465368;28;19919;-45
2022/06/30 20:30:11;;;;;;;;;;;26.30;45.40;;;;;;8465583;28;20424;-43
2022/06/30 20:34:13;;;;;;;;;;;26.30;45.40;;;;;;8465726;28;19911;-44
2022/06/30 20:38:14;;;;;;;;;;;26.30;45.40;;;;;;8465151;28;19912;-43
2022/06/30 20:42:14;;;;;;;;;;;26.30;45.40;;;;;;8465476;28;19912;-45
2022/06/30 20:46:15;;;;;;;;;;;26.30;45.40;;;;;;8465426;28;19916;-43
2022/06/30 20:54:34;;;;;;;;;;;26.30;45.40;;;;;;8470374;28;19998;-43
2022/06/30 20:58:35;;;;;;;;;;;26.20;45.40;;;;;;8464776;28;20357;-43
2022/06/30 21:02:35;;;;;;;;;;;26.20;45.40;;;;;;8429924;28;19916;-43
2022/06/30 21:06:36;;;;;;;;;;;26.20;45.40;;;;;;8445712;28;19916;-45
2022/06/30 21:10:36;;;;;;;;;;;26.20;45.30;;;;;;8464273;28;20355;-44
2022/06/30 21:14:37;;;;;;;;;;;26.20;45.40;;;;;;8465072;28;19914;-44
2022/06/30 21:18:40;;;;;;;;;;;26.20;45.40;;;;;;8464318;28;19911;-44
2022/06/30 21:22:41;;;;;;;;;;;26.20;45.30;;;;;;8463865;28;20335;-43
2022/06/30 21:26:41;;;;;;;;;;;26.20;45.40;;;;;;8464248;28;19927;-43
2022/06/30 21:30:42;;;;;;;;;;;26.20;45.30;;;;;;8464057;28;19907;-45
2022/06/30 21:34:43;;;;;;;;;;;26.10;45.30;;;;;;8463845;28;20284;-43
2022/06/30 21:38:43;;;;;;;;;;;26.10;45.30;;;;;;8464024;28;20493;-43
2022/06/30 21:42:43;;;;;;;;;;;26.20;45.30;;;;;;8463431;28;19911;-45
2022/06/30 21:46:44;;;;;;;;;;;26.10;45.20;;;;;;8463175;28;19920;-44
2022/06/30 21:50:44;;;;;;;;;;;26.10;45.30;;;;;;8463712;28;19908;-45
2022/06/30 21:54:45;;;;;;;;;;;26.10;45.20;;;;;;8463756;28;19998;-43
2022/06/30 21:58:45;;;;;;;;;;;26.10;45.20;;;;;;8463101;28;20086;-45
2022/06/30 22:02:46;;;;;;;;;;;26.10;45.20;;;;;;8462128;28;19911;-44
2022/06/30 22:06:46;;;;;;;;;;;26.10;45.20;;;;;;8463299;28;19922;-47
2022/06/30 22:10:47;;;;;;;;;;;26.00;45.20;;;;;;8461855;28;20295;-44
2022/06/30 22:14:47;;;;;;;;;;;26.00;45.20;;;;;;8463468;28;19908;-45
2022/06/30 22:18:47;;;;;;;;;;;26.00;45.20;;;;;;8463397;28;19951;-46
2022/06/30 22:22:48;;;;;;;;;;;26.00;45.10;;;;;;8462645;28;19957;-45
2022/06/30 22:26:48;;;;;;;;;;;26.00;45.20;;;;;;8463189;28;19970;-47
2022/06/30 22:30:49;;;;;;;;;;;26.00;45.20;;;;;;8463007;28;20006;-42
2022/06/30 22:34:49;;;;;;;;;;;26.00;45.20;;;;;;8462659;28;20229;-44
2022/06/30 22:38:50;;;;;;;;;;;25.90;45.10;;;;;;8462945;28;19911;-42
2022/06/30 22:42:50;;;;;;;;;;;26.00;45.10;;;;;;8462831;28;19919;-42
2022/06/30 22:46:51;;;;;;;;;;;25.90;45.10;;;;;;8462148;28;19973;-43
2022/06/30 22:50:51;;;;;;;;;;;25.90;45.10;;;;;;8462889;28;19968;-43
2022/06/30 22:54:51;;;;;;;;;;;25.90;45.10;;;;;;8465112;28;19998;-43
2022/06/30 22:58:52;;;;;;;;;;;25.90;45.00;;;;;;8468774;28;19918;-44
2022/06/30 23:02:52;;;;;;;;;;;25.90;45.10;;;;;;8469172;28;19919;-44
2022/06/30 23:06:53;;;;;;;;;;;25.90;45.10;;;;;;8468633;28;19930;-44
2022/06/30 23:10:55;;;;;;;;;;;25.90;45.10;;;;;;8468074;28;19930;-43
2022/06/30 23:14:57;;;;;;;;;;;25.90;45.10;;;;;;8468973;28;19954;-43
2022/06/30 23:18:58;;;;;;;;;;;25.90;45.10;;;;;;8468551;28;19923;-44
2022/06/30 23:22:58;;;;;;;;;;;25.90;45.10;;;;;;8467818;28;19919;-42
2022/06/30 23:26:58;;;;;;;;;;;25.80;45.00;;;;;;8467807;28;19920;-43
2022/06/30 23:31:01;;;;;;;;;;;25.80;45.00;;;;;;8467964;28;19931;-42
2022/06/30 23:35:02;;;;;;;;;;;25.80;45.00;;;;;;8467587;28;19915;-44
2022/06/30 23:39:02;;;;;;;;;;;25.80;45.00;;;;;;8467971;28;19912;-43
2022/06/30 23:43:02;;;;;;;;;;;25.80;45.00;;;;;;8467635;28;19937;-43
2022/06/30 23:47:03;;;;;;;;;;;25.80;45.00;;;;;;8466843;28;19957;-44
2022/06/30 23:51:03;;;;;;;;;;;25.80;45.50;;;;;;8467368;28;20221;-43